Flight Track Log - Related Links

Times and Time Zones

All times are in EDT time to prevent confusion due to time zone crossing. See the AFL150 flight status page for this flight to view local times or setup timezone preferences in your user account.

Time Position Orientation Groundspeed Altitude Reporting Facility
EDT Latitude Longitude Course Direction KTS MPH feet Rate Location/Type
Fri 06:29:43 PM 24.3606 -81.4544 207° Southwest 458 527 26,100  Level Miami Center
Fri 06:30:43 PM 24.2539 -81.3844 149° Southeast 449 517 24,900 -550 Descending Miami Center
Fri 06:31:43 PM 24.1597 -81.3219 149° Southeast 429 494 25,000 45 Climbing Miami Center
Fri 06:32:00 PM 24.9198 -81.3408 132° Southeast  Level FlightAware Approximate
Fri 06:32:55 PM 24.0678 -81.2617 149° Southeast 401 461 25,000  Level Miami Center
Fri 06:33:00 PM 24.8148 -81.3998 207° Southwest  Level Estimated
Fri 06:33:55 PM 23.9703 -81.2356 166° South 367 422 25,000  Level Miami Center
Fri 06:34:00 PM 24.7098 -81.4588 207° Southwest  Level Estimated
Fri 06:34:55 PM 23.8519 -81.2133 170° South 356 410 25,000  Level Miami Center
Fri 06:35:00 PM 24.6047 -81.5176 207° Southwest  Level Estimated
Fri 06:36:00 PM 23.7720 -81.3217 231° Southwest  Level FlightAware Approximate
Fri 06:43:00 PM 23.2535 -82.0185 231° Southwest  Level FlightAware Approximate
Fri 06:44:00 PM 23.1792 -82.1176 231° Southwest  Level FlightAware Approximate
Fri 06:45:00 PM 23.1048 -82.2166 231° Southwest  Level FlightAware Approximate
Fri 06:46:00 PM 23.0304 -82.3155 231° Southwest  Level FlightAware Approximate
Fri 06:47:00 PM 22.9667 -82.4000 227° Southwest  Level FlightAware Approximate
Fri 06:48:00 PM 22.9891 -82.4091 340° North  Level Estimated
Fri 06:49:00 PM 22.9891 -82.4091 227° Southwest  Level Estimated
Fri 06:50:00 PM 22.9891 -82.4091 North  Level Estimated
Fri 06:51:00 PM 22.9891 -82.4091 227° Southwest  Level Estimated
Fri 06:52:00 PM 22.9891 -82.4091 North  Level Estimated
Fri 06:53:00 PM 22.9891 -82.4091 227° Southwest  Level Estimated
Fri 06:54:00 PM 22.9891 -82.4091 North  Level Estimated
Fri 06:55:00 PM 22.9891 -82.4091 227° Southwest  Level Estimated

Login

Don't have an account? Register now (free) for customized features, flight alerts, and more!